Hong Kong International Airport
VHHH : rendu visible

Aérodrome :











RETROUVEZ-NOUS SUR...

 
LOGIN :

S'inscrire | Disclaimer

   EN    FR    IT 

 









Légende :    VFR   VFR Marginal   IFR   IFR Intensif   IFR Très Intensif
Visi : 
Plafond : 
>= 8 km
>= 3000ft
5 à 8 km
1000 à 3000 ft
1500m à 5 km
500 à 1000 ft
800 à 1500m
200 à 500 ft
< 800m
< 200 ft
Symboles :   Orages  Brouillard  Fortes neiges  Fortes précipitations  Vent > 20 kt






- Altitude de l'aérodrome : 28 ft
- Code IATA : HKG


VHHH - Hong Kong International

DERNIER METAR :
  • 240300Z 34008KT 300V020 9000 FEW028 25/17 Q1020 NOSIG

METARs EXPIRÉS :
  • 240230Z 02004KT 290V080 9999 FEW025 24/17 Q1021 NOSIG
  • 240200Z 01004KT 300V060 9000 FEW023 24/17 Q1021 NOSIG
  • 240130Z 05005KT 010V080 9999 FEW023 23/17 Q1021 NOSIG
  • 240100Z 05006KT 9999 FEW018 23/17 Q1021 NOSIG
  • 240030Z 04006KT 9999 FEW015 SCT045 23/17 Q1021 NOSIG

TAF TAF VHHH
Valide du 24 à 00h jusqu'au 25 à 06h UTC


232300Z 2400/2506 07010KT 9999 FEW020 SCT030 TX27/2406Z TX29/2506Z TN23/2422Z
TEMPO 2405/2409 27010KT
FIR VHHK / Asie



MET'MAP, la Météo Aéronautique d'un coup d'oeil ! - Copyright ORBIFLY Décembre 2007 - Disclaimer

ORBIFLY MET'MAP TEAM :

Programmation & Développement : Alexandra Zaïnal
Sur une idée originale de : Baudouin d'Aumeries
Assistance à la programmation : Marc-Olivier Méhu
Soutien technique & logistique : Manuel Goepfert

Contact : metmap@orbifly.com




SOURCES & CREDITS :

   NOAA       Earth
Advisory